createdAt,value
2023-05-01T00:01:08.209Z,3.15
2023-05-01T00:03:35.129Z,3.65
2023-05-01T00:06:03.298Z,3.55
2023-05-01T00:08:29.769Z,3.15
2023-05-01T00:10:56.258Z,3.25
2023-05-01T00:13:24.367Z,3.05
2023-05-01T00:15:51.188Z,3.38
2023-05-01T00:18:17.605Z,3.30
2023-05-01T00:20:44.084Z,3.58
2023-05-01T00:23:12.536Z,3.47
2023-05-01T00:25:39.311Z,5.35
2023-05-01T00:28:06.460Z,4.00
2023-05-01T00:30:33.541Z,3.42
2023-05-01T00:33:01.004Z,3.58
2023-05-01T00:35:27.940Z,3.38
2023-05-01T00:37:54.372Z,3.42
2023-05-01T00:40:20.968Z,3.10
2023-05-01T00:42:47.405Z,3.17
2023-05-01T00:45:16.846Z,3.17
2023-05-01T00:47:43.289Z,3.45
2023-05-01T00:50:10.470Z,3.55
2023-05-01T00:52:37.241Z,4.93
2023-05-01T00:55:05.300Z,4.03
2023-05-01T00:57:32.598Z,3.03
2023-05-01T00:59:59.034Z,3.00
2023-05-01T01:02:28.559Z,3.58
2023-05-01T01:04:55.228Z,3.22
2023-05-01T01:07:22.016Z,2.53
2023-05-01T01:09:48.554Z,2.65
2023-05-01T01:12:26.450Z,2.70
2023-05-01T01:15:28.345Z,2.75
2023-05-01T01:17:54.925Z,2.75
2023-05-01T01:20:30.671Z,3.28
2023-05-01T01:23:15.822Z,3.20
2023-05-01T01:25:45.584Z,3.10
2023-05-01T01:28:18.593Z,3.17
2023-05-01T01:31:00.426Z,3.65
2023-05-01T01:33:36.011Z,3.70
2023-05-01T01:36:11.890Z,3.33
2023-05-01T01:38:43.791Z,2.85
2023-05-01T01:41:13.670Z,3.15
2023-05-01T01:43:45.582Z,2.63
2023-05-01T01:46:12.194Z,3.00
2023-05-01T01:48:42.222Z,3.40
2023-05-01T01:51:16.665Z,2.97
2023-05-01T01:53:45.956Z,3.05
2023-05-01T01:56:12.554Z,3.35
2023-05-01T01:58:39.816Z,3.35
2023-05-01T02:01:06.693Z,3.60
2023-05-01T02:03:33.609Z,2.97
2023-05-01T02:06:00.629Z,4.07
2023-05-01T02:08:29.164Z,4.95
2023-05-01T02:11:01.857Z,3.28
2023-05-01T02:13:29.433Z,3.50
2023-05-01T02:15:58.082Z,3.05
2023-05-01T02:18:26.357Z,3.60
2023-05-01T02:20:53.371Z,3.42
2023-05-01T02:23:19.802Z,3.05
2023-05-01T02:25:49.210Z,3.00
2023-05-01T02:28:16.172Z,3.80
2023-05-01T02:30:42.686Z,3.20
2023-05-01T02:33:09.316Z,3.30
2023-05-01T02:35:39.642Z,3.60
2023-05-01T02:38:06.199Z,4.35
2023-05-01T02:40:33.498Z,4.10
2023-05-01T02:43:01.477Z,4.22
2023-05-01T02:45:29.467Z,3.55
2023-05-01T02:47:57.774Z,4.43
2023-05-01T02:50:24.812Z,3.50
2023-05-01T02:52:51.267Z,4.13
2023-05-01T02:55:18.430Z,3.80
2023-05-01T02:57:44.890Z,3.78
2023-05-01T03:00:14.073Z,3.78
2023-05-01T03:02:40.846Z,3.67
2023-05-01T03:05:07.730Z,3.75
2023-05-01T03:07:37.205Z,3.70
2023-05-01T03:10:04.294Z,3.92
2023-05-01T03:12:30.999Z,3.15
2023-05-01T03:14:57.390Z,4.45
2023-05-01T03:17:24.070Z,3.35
2023-05-01T03:19:51.551Z,3.17
2023-05-01T03:22:18.103Z,3.38
2023-05-01T03:24:44.579Z,3.47
2023-05-01T03:27:11.555Z,3.55
2023-05-01T03:29:40.680Z,3.70
2023-05-01T03:32:07.351Z,3.63
2023-05-01T03:34:34.269Z,3.67
2023-05-01T03:37:00.656Z,3.50
2023-05-01T03:39:27.067Z,3.78
2023-05-01T03:41:53.467Z,3.40
2023-05-01T03:44:22.064Z,4.05
2023-05-01T03:46:48.474Z,4.07
2023-05-01T03:49:14.867Z,2.80
2023-05-01T03:51:41.250Z,3.55
2023-05-01T03:54:07.970Z,3.80
2023-05-01T03:56:36.759Z,3.53
2023-05-01T03:59:03.179Z,3.75
2023-05-01T04:01:29.643Z,3.80
2023-05-01T04:03:56.228Z,3.47
2023-05-01T04:06:22.936Z,4.05
2023-05-01T04:08:49.517Z,3.90
2023-05-01T04:11:15.970Z,3.50
2023-05-01T04:13:42.436Z,3.22
2023-05-01T04:16:08.903Z,3.72
2023-05-01T04:18:35.533Z,3.88
2023-05-01T04:21:01.975Z,5.10
2023-05-01T04:23:28.400Z,3.42
2023-05-01T04:25:56.985Z,3.88
2023-05-01T04:28:23.504Z,3.08
2023-05-01T04:30:50.230Z,4.07
2023-05-01T04:33:16.727Z,3.35
2023-05-01T04:35:43.472Z,4.13
2023-05-01T04:38:10.567Z,5.07
2023-05-01T04:40:37.136Z,3.88
2023-05-01T04:43:03.543Z,4.97
2023-05-01T04:45:29.954Z,3.95
2023-05-01T04:47:56.391Z,4.35
2023-05-01T04:50:22.934Z,4.47
2023-05-01T04:52:49.677Z,4.35
2023-05-01T04:55:16.619Z,4.20
2023-05-01T04:57:43.151Z,4.75
2023-05-01T05:00:09.866Z,4.50
2023-05-01T05:02:36.578Z,4.72
2023-05-01T05:05:03.131Z,4.68
2023-05-01T05:07:32.618Z,4.35
2023-05-01T05:09:59.173Z,4.45
2023-05-01T05:12:25.626Z,4.47
2023-05-01T05:14:52.039Z,4.25
2023-05-01T05:17:18.417Z,4.40
2023-05-01T05:19:44.823Z,4.72
2023-05-01T05:22:12.625Z,4.35
2023-05-01T05:24:41.368Z,4.20
2023-05-01T05:27:08.391Z,4.85
2023-05-01T05:29:35.054Z,4.55
2023-05-01T05:32:01.702Z,4.60
2023-05-01T05:34:28.331Z,4.70
2023-05-01T05:36:54.736Z,6.45
2023-05-01T05:39:22.366Z,4.60
2023-05-01T05:41:49.376Z,4.43
2023-05-01T05:44:16.118Z,4.57
2023-05-01T05:46:42.556Z,4.57
2023-05-01T05:49:09.213Z,5.03
2023-05-01T05:51:35.892Z,4.68
2023-05-01T05:54:02.292Z,4.40
2023-05-01T05:56:28.675Z,5.75
2023-05-01T05:58:55.117Z,4.78
2023-05-01T06:01:21.485Z,4.03
2023-05-01T06:03:47.999Z,4.80
2023-05-01T06:06:17.592Z,4.30
2023-05-01T06:08:46.239Z,4.20
2023-05-01T06:11:12.703Z,4.28
2023-05-01T06:13:39.122Z,4.57
2023-05-01T06:16:07.433Z,5.55
2023-05-01T06:18:33.888Z,4.88
2023-05-01T06:21:00.342Z,4.82
2023-05-01T06:23:26.735Z,4.88
2023-05-01T06:25:53.204Z,4.82
2023-05-01T06:28:19.608Z,4.75
2023-05-01T06:30:46.339Z,5.15
2023-05-01T06:33:12.758Z,5.30
2023-05-01T06:35:39.813Z,5.20
2023-05-01T06:38:06.247Z,5.63
2023-05-01T06:40:36.862Z,5.10
2023-05-01T06:43:03.517Z,5.03
2023-05-01T06:45:29.958Z,6.18
2023-05-01T06:47:56.504Z,5.53
2023-05-01T06:50:22.972Z,5.20
2023-05-01T06:52:49.398Z,5.43
2023-05-01T06:55:16.288Z,5.82
2023-05-01T06:57:42.890Z,5.38
2023-05-01T07:00:11.324Z,6.03
2023-05-01T07:02:38.297Z,5.43
2023-05-01T07:05:05.685Z,6.25
2023-05-01T07:07:32.228Z,5.47
2023-05-01T07:09:59.083Z,5.60
2023-05-01T07:12:25.844Z,5.05
2023-05-01T07:14:52.378Z,6.40
2023-05-01T07:17:18.901Z,4.60
2023-05-01T07:19:45.427Z,4.72
2023-05-01T07:22:12.446Z,5.13
2023-05-01T07:24:38.863Z,5.43
2023-05-01T07:27:05.469Z,5.40
2023-05-01T07:29:31.876Z,5.45
2023-05-01T07:31:58.652Z,5.18
2023-05-01T07:34:25.164Z,5.88
2023-05-01T07:36:51.604Z,5.82
2023-05-01T07:39:18.035Z,5.30
2023-05-01T07:41:44.431Z,5.22
2023-05-01T07:44:11.028Z,5.45
2023-05-01T07:46:37.863Z,5.63
2023-05-01T07:49:04.407Z,5.55
2023-05-01T07:51:31.092Z,5.75
2023-05-01T07:53:57.501Z,5.43
2023-05-01T07:56:23.919Z,5.40
2023-05-01T07:58:50.400Z,5.22
2023-05-01T08:01:16.884Z,4.70
2023-05-01T08:03:48.070Z,5.20
2023-05-01T08:06:15.992Z,4.85
2023-05-01T08:08:42.463Z,5.22
2023-05-01T08:11:09.279Z,5.10
2023-05-01T08:13:35.712Z,4.88
2023-05-01T08:16:03.190Z,5.25
2023-05-01T08:18:30.081Z,4.82
2023-05-01T08:20:56.609Z,5.38
2023-05-01T08:23:25.256Z,4.50
2023-05-01T08:25:51.994Z,4.43
2023-05-01T08:28:20.840Z,4.25
2023-05-01T08:30:49.146Z,4.82
2023-05-01T08:33:16.396Z,4.80
2023-05-01T08:35:43.010Z,4.95
2023-05-01T08:38:10.346Z,3.50
2023-05-01T08:40:38.158Z,4.10
2023-05-01T08:43:05.025Z,4.13
2023-05-01T08:45:37.902Z,4.00
2023-05-01T08:48:10.223Z,5.35
2023-05-01T08:50:38.786Z,3.47
2023-05-01T08:53:06.386Z,3.72
2023-05-01T08:55:34.820Z,4.25
2023-05-01T08:58:01.426Z,3.78
2023-05-01T09:00:28.591Z,3.28
2023-05-01T09:02:55.344Z,3.03
2023-05-01T09:05:21.929Z,3.00
2023-05-01T09:07:48.390Z,2.60
2023-05-01T09:10:19.031Z,3.03
2023-05-01T09:12:49.185Z,2.65
2023-05-01T09:15:16.006Z,2.87
2023-05-01T09:17:42.519Z,4.38
2023-05-01T09:20:09.986Z,3.17
2023-05-01T09:22:36.550Z,3.05
2023-05-01T09:25:04.031Z,2.80
2023-05-01T09:27:37.324Z,3.03
2023-05-01T09:30:06.007Z,3.00
2023-05-01T09:32:33.567Z,2.78
2023-05-01T09:35:10.333Z,3.38
2023-05-01T09:37:36.914Z,2.55
2023-05-01T09:40:06.506Z,2.92
2023-05-01T09:42:39.978Z,3.17
2023-05-01T09:45:12.067Z,3.17
2023-05-01T09:47:38.754Z,3.28
2023-05-01T09:50:05.495Z,4.07
2023-05-01T09:52:36.148Z,2.63
2023-05-01T09:55:31.688Z,3.20
2023-05-01T09:57:58.872Z,3.15
2023-05-01T10:00:25.378Z,3.05
2023-05-01T10:02:52.063Z,3.60
2023-05-01T10:05:18.929Z,3.25
2023-05-01T10:07:57.266Z,3.45
2023-05-01T10:10:23.924Z,3.47
2023-05-01T10:12:50.452Z,4.05
2023-05-01T10:15:24.540Z,3.78
2023-05-01T10:17:53.913Z,4.25
2023-05-01T10:20:20.976Z,4.20
2023-05-01T10:22:48.790Z,4.68
2023-05-01T10:25:17.636Z,4.38
2023-05-01T10:27:44.274Z,4.38
2023-05-01T10:30:11.171Z,4.10
2023-05-01T10:32:38.693Z,5.03
2023-05-01T10:35:18.897Z,4.75
2023-05-01T10:37:49.009Z,5.00
2023-05-01T10:40:34.392Z,4.77
2023-05-01T10:43:30.178Z,4.55
2023-05-01T10:46:16.907Z,5.22
2023-05-01T10:48:46.385Z,4.97
2023-05-01T10:51:13.561Z,5.03
2023-05-01T10:53:40.982Z,5.43
2023-05-01T10:56:27.797Z,4.75
2023-05-01T10:58:56.022Z,4.70
2023-05-01T11:01:29.184Z,5.20
2023-05-01T11:03:56.904Z,5.13
2023-05-01T11:06:24.159Z,4.72
2023-05-01T11:08:50.804Z,4.63
2023-05-01T11:11:23.655Z,5.85
2023-05-01T11:14:05.796Z,5.18
2023-05-01T11:16:38.528Z,6.20
2023-05-01T11:19:05.895Z,4.90
2023-05-01T11:21:34.074Z,5.00
2023-05-01T11:24:04.102Z,4.55
2023-05-01T11:26:32.398Z,5.55
2023-05-01T11:28:59.626Z,5.53
2023-05-01T11:31:28.925Z,6.22
2023-05-01T11:34:06.158Z,5.57
2023-05-01T11:40:21.866Z,6.13
2023-05-01T11:42:48.868Z,6.25
2023-05-01T11:45:15.403Z,5.88
2023-05-01T11:47:41.947Z,6.40
2023-05-01T11:50:09.172Z,6.68
2023-05-01T11:53:01.682Z,5.47
2023-05-01T11:55:31.792Z,6.07
2023-05-01T11:57:58.394Z,5.97
2023-05-01T12:00:36.798Z,5.13
2023-05-01T12:03:07.956Z,5.93
2023-05-01T12:05:38.202Z,6.03
2023-05-01T12:08:13.904Z,5.40
2023-05-01T12:10:42.040Z,6.25
2023-05-01T12:13:09.532Z,5.40
2023-05-01T12:15:37.427Z,7.55
2023-05-01T12:18:05.059Z,5.95
2023-05-01T12:20:39.336Z,5.68
2023-05-01T12:23:06.861Z,6.38
2023-05-01T12:25:34.204Z,6.90
2023-05-01T12:28:02.227Z,6.55
2023-05-01T12:30:29.666Z,6.82
2023-05-01T12:32:57.841Z,8.20
2023-05-01T12:35:33.229Z,7.88
2023-05-01T12:37:59.810Z,6.88
2023-05-01T12:40:26.947Z,7.05
2023-05-01T12:42:57.627Z,6.95
2023-05-01T12:45:24.278Z,6.07
2023-05-01T12:47:51.087Z,6.63
2023-05-01T12:50:17.623Z,7.35
2023-05-01T12:52:44.331Z,6.30
2023-05-01T12:55:12.584Z,6.55
2023-05-01T12:57:54.809Z,7.93
2023-05-01T13:00:21.335Z,6.78
2023-05-01T13:02:47.876Z,8.50
2023-05-01T13:05:14.336Z,7.38
2023-05-01T13:07:47.606Z,7.15
2023-05-01T13:10:14.950Z,7.20
2023-05-01T13:12:44.814Z,8.27
2023-05-01T13:15:21.603Z,7.63
2023-05-01T13:17:48.185Z,8.23
2023-05-01T13:20:15.550Z,7.43
2023-05-01T13:22:42.216Z,7.85
2023-05-01T13:25:19.738Z,8.95
2023-05-01T13:27:49.926Z,7.88
2023-05-01T13:30:18.493Z,7.53
2023-05-01T13:32:46.288Z,8.40
2023-05-01T13:35:12.706Z,8.40
2023-05-01T13:37:40.045Z,8.52
2023-05-01T13:40:06.794Z,8.65
2023-05-01T13:42:33.224Z,7.93
2023-05-01T13:45:00.167Z,8.48
2023-05-01T13:47:27.175Z,7.80
2023-05-01T13:49:54.040Z,8.23
2023-05-01T13:52:20.810Z,9.27
2023-05-01T13:54:48.266Z,8.57
2023-05-01T13:57:15.997Z,9.40
2023-05-01T13:59:43.260Z,10.15
2023-05-01T14:02:20.337Z,9.98
2023-05-01T14:04:47.036Z,11.45
2023-05-01T14:07:20.865Z,9.18
2023-05-01T14:09:52.412Z,9.35
2023-05-01T14:12:19.981Z,10.85
2023-05-01T14:14:49.636Z,8.75
2023-05-01T14:17:16.208Z,10.43
2023-05-01T14:19:42.700Z,10.45
2023-05-01T14:22:09.143Z,10.18
2023-05-01T14:24:40.509Z,10.07
2023-05-01T14:27:08.612Z,9.23
2023-05-01T14:29:35.013Z,9.07
2023-05-01T14:32:05.322Z,10.38
2023-05-01T14:34:33.383Z,10.18
2023-05-01T14:36:59.806Z,10.73
2023-05-01T14:39:27.094Z,9.35
2023-05-01T14:41:55.702Z,11.55
2023-05-01T14:44:25.299Z,10.13
2023-05-01T14:46:52.267Z,10.43
2023-05-01T14:49:22.740Z,10.43
2023-05-01T14:51:49.191Z,11.07
2023-05-01T14:54:15.881Z,11.23
2023-05-01T14:56:42.807Z,12.25
2023-05-01T14:59:09.429Z,10.70
2023-05-01T15:01:36.057Z,11.57
2023-05-01T15:04:03.770Z,11.30
2023-05-01T15:06:30.625Z,11.88
2023-05-01T15:08:57.074Z,11.35
2023-05-01T15:11:23.568Z,11.40
2023-05-01T15:13:50.551Z,11.52
2023-05-01T15:16:17.290Z,11.13
2023-05-01T15:18:43.936Z,12.07
2023-05-01T15:21:10.900Z,12.52
2023-05-01T15:23:37.480Z,11.10
2023-05-01T15:26:04.000Z,11.55
2023-05-01T15:28:30.547Z,12.25
2023-05-01T15:30:57.169Z,12.43
2023-05-01T15:33:23.865Z,13.65
2023-05-01T15:35:52.740Z,13.23
2023-05-01T15:38:20.980Z,13.05
2023-05-01T15:40:47.472Z,12.50
2023-05-01T15:43:13.933Z,12.40
2023-05-01T15:45:43.507Z,13.15
2023-05-01T15:48:11.289Z,12.73
2023-05-01T15:50:37.871Z,11.63
2023-05-01T15:53:04.316Z,11.45
2023-05-01T15:55:30.784Z,13.45
2023-05-01T15:58:00.288Z,12.75
2023-05-01T16:00:26.745Z,13.15
2023-05-01T16:02:53.335Z,12.57
2023-05-01T16:05:21.433Z,15.30
2023-05-01T16:07:50.473Z,12.48
2023-05-01T16:10:16.884Z,14.02
2023-05-01T16:12:43.342Z,12.48
2023-05-01T16:15:13.735Z,13.85
2023-05-01T16:17:43.633Z,12.52
2023-05-01T16:20:11.752Z,13.88
2023-05-01T16:22:39.079Z,12.75
2023-05-01T16:25:05.692Z,12.57
2023-05-01T16:27:32.139Z,13.02
2023-05-01T16:29:58.830Z,12.45
2023-05-01T16:32:25.935Z,12.68
2023-05-01T16:34:52.463Z,13.23
2023-05-01T16:37:21.080Z,11.90
2023-05-01T16:39:48.547Z,11.38
2023-05-01T16:42:15.330Z,11.18
2023-05-01T16:44:41.793Z,11.13
2023-05-01T16:47:10.906Z,11.43
2023-05-01T16:49:39.967Z,11.10
2023-05-01T16:52:06.475Z,11.35
2023-05-01T16:54:35.839Z,10.73
2023-05-01T16:57:03.216Z,12.63
2023-05-01T16:59:30.002Z,11.68
2023-05-01T17:01:56.681Z,9.88
2023-05-01T17:04:23.254Z,10.68
2023-05-01T17:06:49.974Z,10.38
2023-05-01T17:09:16.510Z,9.90
2023-05-01T17:11:43.151Z,9.23
2023-05-01T17:14:09.537Z,10.05
2023-05-01T17:16:36.248Z,9.20
2023-05-01T17:19:08.840Z,11.20
2023-05-01T17:21:35.576Z,9.57
2023-05-01T17:24:02.489Z,10.30
2023-05-01T17:26:28.901Z,9.85
2023-05-01T17:28:55.317Z,9.63
2023-05-01T17:31:22.685Z,9.60
2023-05-01T17:33:49.388Z,10.73
2023-05-01T17:36:15.856Z,10.05
2023-05-01T17:38:42.345Z,9.60
2023-05-01T17:41:08.751Z,9.40
2023-05-01T17:43:35.378Z,10.52
2023-05-01T17:46:01.866Z,11.13
2023-05-01T17:48:28.306Z,8.70
2023-05-01T17:50:55.795Z,8.88
2023-05-01T17:53:23.290Z,8.18
2023-05-01T17:55:49.849Z,8.07
2023-05-01T17:58:18.408Z,8.55
2023-05-01T18:00:44.854Z,8.02
2023-05-01T18:03:11.329Z,7.38
2023-05-01T18:05:37.872Z,8.60
2023-05-01T18:08:04.451Z,8.07
2023-05-01T18:10:31.293Z,7.85
2023-05-01T18:12:58.207Z,8.88
2023-05-01T18:15:24.742Z,8.95
2023-05-01T18:17:51.535Z,10.13
2023-05-01T18:20:18.009Z,10.40
2023-05-01T18:22:44.452Z,9.68
2023-05-01T18:25:11.130Z,7.90
2023-05-01T18:27:38.225Z,6.80
2023-05-01T18:30:05.283Z,6.38
2023-05-01T18:32:46.316Z,5.10
2023-05-01T18:35:13.948Z,4.97
2023-05-01T18:37:42.300Z,4.07
2023-05-01T18:40:09.639Z,4.13
2023-05-01T18:42:36.124Z,3.95
2023-05-01T18:45:03.210Z,3.50
2023-05-01T18:47:29.726Z,3.05
2023-05-01T18:49:56.313Z,2.88
2023-05-01T18:52:22.853Z,2.55
2023-05-01T18:54:49.312Z,2.53
2023-05-01T18:57:15.883Z,2.40
2023-05-01T18:59:43.652Z,2.80
2023-05-01T19:02:11.473Z,2.17
2023-05-01T19:04:49.266Z,1.80
2023-05-01T19:07:22.990Z,1.85
2023-05-01T19:09:49.460Z,1.65
2023-05-01T19:12:16.525Z,1.70
2023-05-01T19:14:42.971Z,1.80
2023-05-01T19:17:09.540Z,1.60
2023-05-01T19:19:36.054Z,1.42
2023-05-01T19:22:02.444Z,1.38
2023-05-01T19:24:28.867Z,1.55
2023-05-01T19:26:55.306Z,1.85
2023-05-01T19:29:21.739Z,1.33
2023-05-01T19:31:48.428Z,1.70
2023-05-01T19:34:16.925Z,1.52
2023-05-01T19:36:43.304Z,1.50
2023-05-01T19:39:10.176Z,1.42
2023-05-01T19:41:36.990Z,1.58
2023-05-01T19:44:03.578Z,1.70
2023-05-01T19:46:30.086Z,2.35
2023-05-01T19:48:56.472Z,1.92
2023-05-01T19:51:22.965Z,2.00
2023-05-01T19:53:49.353Z,1.75
2023-05-01T19:56:15.763Z,2.10
2023-05-01T19:58:42.223Z,2.00
2023-05-01T20:01:11.801Z,1.77
2023-05-01T20:03:38.507Z,1.50
2023-05-01T20:06:06.415Z,1.73
2023-05-01T20:08:33.449Z,1.80
2023-05-01T20:11:00.350Z,1.67
2023-05-01T20:13:26.817Z,1.55
2023-05-01T20:15:53.228Z,1.60
2023-05-01T20:18:19.924Z,1.40
2023-05-01T20:20:46.376Z,1.50
2023-05-01T20:23:13.807Z,1.48
2023-05-01T20:25:40.455Z,1.23
2023-05-01T20:28:07.259Z,1.30
2023-05-01T20:30:34.205Z,1.42
2023-05-01T20:33:03.219Z,1.13
2023-05-01T20:35:31.565Z,1.50
2023-05-01T20:37:58.563Z,1.30
2023-05-01T20:40:24.965Z,1.50
2023-05-01T20:42:51.923Z,1.20
2023-05-01T20:45:18.331Z,1.25
2023-05-01T20:47:45.329Z,1.23
2023-05-01T20:50:13.836Z,1.40
2023-05-01T20:52:40.310Z,1.02
2023-05-01T20:55:06.991Z,1.10
2023-05-01T20:57:34.839Z,0.80
2023-05-01T21:00:04.656Z,1.02
2023-05-01T21:02:31.336Z,0.90
2023-05-01T21:04:57.758Z,0.80
2023-05-01T21:07:25.525Z,0.95
2023-05-01T21:09:51.902Z,1.00
2023-05-01T21:12:18.299Z,0.70
2023-05-01T21:14:44.711Z,0.90
2023-05-01T21:17:11.344Z,0.52
2023-05-01T21:19:47.081Z,0.60
2023-05-01T21:22:14.901Z,0.60
2023-05-01T21:24:43.019Z,0.70
2023-05-01T21:27:09.523Z,0.82
2023-05-01T21:29:35.917Z,0.57
2023-05-01T21:32:03.892Z,0.50
2023-05-01T21:34:30.501Z,0.50
2023-05-01T21:36:57.083Z,0.45
2023-05-01T21:39:24.727Z,0.30
2023-05-01T21:41:51.240Z,0.40
2023-05-01T21:44:17.851Z,0.40
2023-05-01T21:46:44.285Z,0.25
2023-05-01T21:49:16.895Z,0.30
2023-05-01T21:51:43.410Z,0.40
2023-05-01T21:54:09.835Z,0.43
2023-05-01T21:56:36.314Z,0.55
2023-05-01T21:59:04.730Z,0.20
2023-05-01T22:01:31.634Z,0.32
2023-05-01T22:03:58.247Z,0.30
2023-05-01T22:06:24.782Z,0.20
2023-05-01T22:08:51.989Z,0.30
2023-05-01T22:11:19.580Z,0.30
2023-05-01T22:13:46.233Z,0.38
2023-05-01T22:16:14.128Z,0.40
2023-05-01T22:18:40.768Z,0.30
2023-05-01T22:21:07.225Z,0.60
2023-05-01T22:23:33.618Z,0.30
2023-05-01T22:26:00.281Z,0.43
2023-05-01T22:28:27.020Z,0.40
2023-05-01T22:30:53.465Z,0.45
2023-05-01T22:33:21.990Z,0.40
2023-05-01T22:35:48.730Z,0.40
2023-05-01T22:38:15.220Z,0.50
2023-05-01T22:40:41.618Z,0.40
2023-05-01T22:43:08.173Z,0.40
2023-05-01T22:45:34.854Z,0.40
2023-05-01T22:48:01.382Z,0.60
2023-05-01T22:50:27.799Z,0.40
2023-05-01T22:52:54.235Z,0.50
2023-05-01T22:55:20.752Z,0.60
2023-05-01T22:57:47.140Z,0.40
2023-05-01T23:00:13.838Z,0.30
2023-05-01T23:02:40.748Z,0.63
2023-05-01T23:05:07.872Z,0.40
2023-05-01T23:07:34.303Z,0.30
2023-05-01T23:10:01.152Z,0.30
2023-05-01T23:12:28.308Z,0.50
2023-05-01T23:14:55.136Z,0.30
2023-05-01T23:17:22.046Z,0.30
2023-05-01T23:19:48.550Z,0.20
2023-05-01T23:22:14.991Z,0.30
2023-05-01T23:24:50.796Z,0.28
2023-05-01T23:27:18.125Z,0.20
2023-05-01T23:29:54.983Z,0.30
2023-05-01T23:32:26.805Z,0.30
2023-05-01T23:35:04.888Z,0.38
2023-05-01T23:37:31.302Z,0.40
2023-05-01T23:39:59.715Z,0.50
2023-05-01T23:42:28.205Z,0.30
2023-05-01T23:44:55.402Z,0.57
2023-05-01T23:47:22.107Z,0.50
2023-05-01T23:49:49.100Z,0.40
2023-05-01T23:52:15.711Z,0.47
2023-05-01T23:54:42.213Z,0.60
2023-05-01T23:57:08.596Z,0.52
2023-05-01T23:59:35.460Z,0.57
